KIPT/IPT METAR and TAF weather

Enter ICAO airport designator
Station Type Date Time Source
KIPT METAR 2024/04/15 08:54 UTC NOAA

KIPT 150854Z AUTO 00000KT 10SM CLR 12/11 A2975 RMK AO2 SLP073 T01220111 53008 $


Station Type Date Time Source
KIPT Decoded METAR 2024/04/15 08:54 UTC NOAA

WILLIAMSPORT-LYCOMING COUNTY, PA, United States (KIPT) 41-15N 076-55W 164M
Apr 15, 2024 - 04:54 AM EDT / 2024.04.15 0854 UTC
Wind: Calm:0
Visibility: 10 mile(s):0
Sky conditions: clear
Temperature: 54.0 F (12.2 C)
Dew Point: 52.0 F (11.1 C)
Relative Humidity: 92%
Pressure (altimeter): 29.75 in. Hg (1007 hPa)
Pressure tendency: 0.02 inches (0.8 hPa) higher than three hours ago
ob: KIPT 150854Z AUTO 00000KT 10SM CLR 12/11 A2975 RMK AO2 SLP073 T01220111 53008
cycle: 9

Station Type Date Time Source
KIPT TAF 2024/04/15 06:39 UTC NOAA